sensor_id;sensor_type;location;lat;lon;timestamp;pressure;altitude;pressure_sealevel;temperature;humidity
48796;BME280;34607;48.520;-1.330;2023-03-02T08:42:48;100796.50;;;4.40;83.15
48796;BME280;34607;48.520;-1.330;2023-03-02T08:45:21;100800.59;;;4.36;81.80
48796;BME280;34607;48.520;-1.330;2023-03-02T08:47:48;100805.16;;;4.60;82.76
48796;BME280;34607;48.520;-1.330;2023-03-02T08:50:15;100800.75;;;4.75;82.66
48796;BME280;34607;48.520;-1.330;2023-03-02T08:52:42;100803.50;;;4.98;81.87
48796;BME280;34607;48.520;-1.330;2023-03-02T08:55:10;100762.50;;;4.80;81.10
48796;BME280;34607;48.520;-1.330;2023-03-02T08:57:37;100664.50;;;4.31;81.06
48796;BME280;34607;48.520;-1.330;2023-03-02T09:00:09;100808.28;;;5.47;81.03
48796;BME280;34607;48.520;-1.330;2023-03-02T09:02:39;100809.69;;;5.60;80.62
48796;BME280;34607;48.520;-1.330;2023-03-02T09:05:07;100805.16;;;5.74;79.72
48796;BME280;34607;48.520;-1.330;2023-03-02T09:07:34;100808.81;;;5.98;79.77
48796;BME280;34607;48.520;-1.330;2023-03-02T09:10:01;100805.63;;;6.25;79.18
48796;BME280;34607;48.520;-1.330;2023-03-02T09:12:28;100800.66;;;6.30;78.60
48796;BME280;34607;48.520;-1.330;2023-03-02T09:14:55;100806.38;;;6.23;78.12
48796;BME280;34607;48.520;-1.330;2023-03-02T09:17:24;100794.88;;;6.35;78.78
48796;BME280;34607;48.520;-1.330;2023-03-02T09:19:51;100798.41;;;6.59;78.72
48796;BME280;34607;48.520;-1.330;2023-03-02T09:22:18;100798.72;;;6.89;78.01
48796;BME280;34607;48.520;-1.330;2023-03-02T09:24:45;100795.41;;;7.16;77.36
48796;BME280;34607;48.520;-1.330;2023-03-02T09:27:12;100792.38;;;7.26;77.33
48796;BME280;34607;48.520;-1.330;2023-03-02T09:29:39;100798.19;;;7.44;76.56
48796;BME280;34607;48.520;-1.330;2023-03-02T09:32:06;100794.34;;;7.57;75.58
48796;BME280;34607;48.520;-1.330;2023-03-02T09:34:35;100783.41;;;7.63;75.85
48796;BME280;34607;48.520;-1.330;2023-03-02T09:37:02;100798.84;;;7.87;75.40
48796;BME280;34607;48.520;-1.330;2023-03-02T09:39:29;100798.63;;;7.81;74.55
48796;BME280;34607;48.520;-1.330;2023-03-02T09:42:19;100765.59;;;7.71;75.70
48796;BME280;34607;48.520;-1.330;2023-03-02T09:45:02;100798.22;;;8.20;75.75
48796;BME280;34607;48.520;-1.330;2023-03-02T09:47:46;100747.72;;;8.01;74.34
48796;BME280;34607;48.520;-1.330;2023-03-02T09:50:26;100790.53;;;8.21;73.11
48796;BME280;34607;48.520;-1.330;2023-03-02T09:53:10;100801.22;;;8.06;74.48
48796;BME280;34607;48.520;-1.330;2023-03-02T09:55:43;100791.09;;;8.38;74.75
48796;BME280;34607;48.520;-1.330;2023-03-02T09:58:14;100796.34;;;8.67;73.63
48796;BME280;34607;48.520;-1.330;2023-03-02T10:00:44;100790.19;;;8.92;72.74
48796;BME280;34607;48.520;-1.330;2023-03-02T10:03:15;100796.38;;;8.97;72.28
48796;BME280;34607;48.520;-1.330;2023-03-02T10:05:45;100797.72;;;9.13;72.59
48796;BME280;34607;48.520;-1.330;2023-03-02T10:08:14;100801.66;;;9.31;72.11
48796;BME280;34607;48.520;-1.330;2023-03-02T10:10:44;100798.50;;;9.41;71.64
48796;BME280;34607;48.520;-1.330;2023-03-02T10:13:20;100790.53;;;9.33;71.28
48796;BME280;34607;48.520;-1.330;2023-03-02T10:15:55;100788.69;;;9.61;71.36
48796;BME280;34607;48.520;-1.330;2023-03-02T10:18:31;100783.84;;;9.72;70.72
48796;BME280;34607;48.520;-1.330;2023-03-02T10:21:05;100791.03;;;9.52;70.41
48796;BME280;34607;48.520;-1.330;2023-03-02T10:23:46;100794.47;;;9.83;71.08
48796;BME280;34607;48.520;-1.330;2023-03-02T10:26:22;100780.28;;;10.02;70.69
48796;BME280;34607;48.520;-1.330;2023-03-02T10:28:59;100787.16;;;10.35;70.35
48796;BME280;34607;48.520;-1.330;2023-03-02T10:31:27;100789.50;;;10.25;66.76
48796;BME280;34607;48.520;-1.330;2023-03-02T10:33:55;100784.66;;;10.38;69.94
48796;BME280;34607;48.520;-1.330;2023-03-02T10:36:26;100787.34;;;10.41;69.02
48796;BME280;34607;48.520;-1.330;2023-03-02T10:38:54;100786.72;;;10.51;69.35
48796;BME280;34607;48.520;-1.330;2023-03-02T10:41:25;100785.72;;;10.46;68.41
48796;BME280;34607;48.520;-1.330;2023-03-02T10:43:59;100791.69;;;10.43;69.52
48796;BME280;34607;48.520;-1.330;2023-03-02T10:46:38;100782.59;;;10.59;68.94
48796;BME280;34607;48.520;-1.330;2023-03-02T10:49:23;100790.00;;;10.82;67.33
48796;BME280;34607;48.520;-1.330;2023-03-02T10:51:57;100784.03;;;10.86;68.46
48796;BME280;34607;48.520;-1.330;2023-03-02T10:54:25;100787.53;;;11.28;67.83
48796;BME280;34607;48.520;-1.330;2023-03-02T10:56:55;100784.47;;;11.06;66.98
48796;BME280;34607;48.520;-1.330;2023-03-02T10:59:37;100785.72;;;11.25;67.03
48796;BME280;34607;48.520;-1.330;2023-03-02T11:02:14;100780.25;;;10.70;65.71
48796;BME280;34607;48.520;-1.330;2023-03-02T11:04:41;100782.69;;;10.64;67.42
48796;BME280;34607;48.520;-1.330;2023-03-02T11:07:14;100754.47;;;10.76;67.08
48796;BME280;34607;48.520;-1.330;2023-03-02T11:09:42;100781.34;;;11.21;66.64
48796;BME280;34607;48.520;-1.330;2023-03-02T11:12:14;100775.88;;;11.51;65.71
48796;BME280;34607;48.520;-1.330;2023-03-02T11:14:41;100772.47;;;11.54;65.54
48796;BME280;34607;48.520;-1.330;2023-03-02T11:17:28;100771.50;;;11.49;65.42
48796;BME280;34607;48.520;-1.330;2023-03-02T11:19:56;100767.03;;;11.87;65.80
48796;BME280;34607;48.520;-1.330;2023-03-02T11:22:31;100759.75;;;12.16;64.03
48796;BME280;34607;48.520;-1.330;2023-03-02T11:25:05;100766.44;;;12.01;64.29
48796;BME280;34607;48.520;-1.330;2023-03-02T11:27:35;100762.09;;;12.01;63.49
48796;BME280;34607;48.520;-1.330;2023-03-02T11:30:10;100766.53;;;12.07;63.95
48796;BME280;34607;48.520;-1.330;2023-03-02T11:32:43;100768.38;;;12.14;62.94
48796;BME280;34607;48.520;-1.330;2023-03-02T11:35:23;100754.66;;;12.21;63.11
48796;BME280;34607;48.520;-1.330;2023-03-02T11:38:03;100753.41;;;12.52;62.45
48796;BME280;34607;48.520;-1.330;2023-03-02T11:40:44;100773.63;;;12.73;62.34
48796;BME280;34607;48.520;-1.330;2023-03-02T11:43:12;100768.56;;;12.83;60.12
48796;BME280;34607;48.520;-1.330;2023-03-02T11:45:43;100762.69;;;12.98;62.20
48796;BME280;34607;48.520;-1.330;2023-03-02T11:48:17;100764.38;;;12.92;60.58
48796;BME280;34607;48.520;-1.330;2023-03-02T11:50:53;100753.66;;;12.71;60.80
48796;BME280;34607;48.520;-1.330;2023-03-02T11:53:24;100751.09;;;12.72;58.96
48796;BME280;34607;48.520;-1.330;2023-03-02T11:55:52;100757.13;;;12.70;60.70
48796;BME280;34607;48.520;-1.330;2023-03-02T11:58:21;100749.16;;;12.59;60.53
48796;BME280;34607;48.520;-1.330;2023-03-02T12:00:50;100725.78;;;12.59;60.34
48796;BME280;34607;48.520;-1.330;2023-03-02T12:03:34;100751.41;;;12.96;59.13
48796;BME280;34607;48.520;-1.330;2023-03-02T12:06:04;100756.75;;;13.06;59.19
48796;BME280;34607;48.520;-1.330;2023-03-02T12:08:37;100755.78;;;13.00;57.95
48796;BME280;34607;48.520;-1.330;2023-03-02T12:11:06;100744.53;;;12.99;58.26
48796;BME280;34607;48.520;-1.330;2023-03-02T12:13:36;100722.00;;;13.00;57.83
48796;BME280;34607;48.520;-1.330;2023-03-02T12:16:15;100731.78;;;13.21;57.66
48796;BME280;34607;48.520;-1.330;2023-03-02T12:18:46;100738.56;;;13.08;57.69
48796;BME280;34607;48.520;-1.330;2023-03-02T12:21:16;100739.00;;;13.45;57.90
48796;BME280;34607;48.520;-1.330;2023-03-02T12:23:57;100735.44;;;13.34;55.36
48796;BME280;34607;48.520;-1.330;2023-03-02T12:26:31;100741.72;;;12.84;55.37
48796;BME280;34607;48.520;-1.330;2023-03-02T12:29:00;100746.44;;;12.50;55.96
48796;BME280;34607;48.520;-1.330;2023-03-02T12:31:39;100744.75;;;13.19;56.98
48796;BME280;34607;48.520;-1.330;2023-03-02T12:34:29;100740.84;;;13.55;55.98
48796;BME280;34607;48.520;-1.330;2023-03-02T12:37:02;100733.28;;;13.77;56.02
48796;BME280;34607;48.520;-1.330;2023-03-02T12:39:43;100740.22;;;13.79;55.51
48796;BME280;34607;48.520;-1.330;2023-03-02T12:42:35;100743.44;;;13.55;55.26
48796;BME280;34607;48.520;-1.330;2023-03-02T12:45:14;100739.06;;;13.49;55.24
48796;BME280;34607;48.520;-1.330;2023-03-02T12:47:48;100738.53;;;13.84;55.94
48796;BME280;34607;48.520;-1.330;2023-03-02T12:50:20;100730.78;;;13.91;55.52
48796;BME280;34607;48.520;-1.330;2023-03-02T12:52:56;100726.25;;;13.70;55.30
48796;BME280;34607;48.520;-1.330;2023-03-02T12:55:26;100745.34;;;13.70;56.12
48796;BME280;34607;48.520;-1.330;2023-03-02T12:57:55;100728.22;;;13.95;55.51
48796;BME280;34607;48.520;-1.330;2023-03-02T13:00:23;100731.44;;;13.68;55.88
48796;BME280;34607;48.520;-1.330;2023-03-02T13:02:53;100726.31;;;13.77;56.46
48796;BME280;34607;48.520;-1.330;2023-03-02T13:05:22;100710.56;;;13.62;56.56
48796;BME280;34607;48.520;-1.330;2023-03-02T13:07:56;100726.34;;;13.79;55.52
48796;BME280;34607;48.520;-1.330;2023-03-02T13:10:29;100738.06;;;13.38;56.25
48796;BME280;34607;48.520;-1.330;2023-03-02T13:12:58;100737.69;;;13.09;56.53
48796;BME280;34607;48.520;-1.330;2023-03-02T13:15:25;100732.44;;;13.03;57.21
48796;BME280;34607;48.520;-1.330;2023-03-02T13:17:54;100723.66;;;12.95;57.30
48796;BME280;34607;48.520;-1.330;2023-03-02T13:20:24;100699.16;;;12.74;57.20
48796;BME280;34607;48.520;-1.330;2023-03-02T13:22:52;100725.38;;;12.92;56.73
48796;BME280;34607;48.520;-1.330;2023-03-02T13:25:22;100725.78;;;13.28;57.25
48796;BME280;34607;48.520;-1.330;2023-03-02T13:27:57;100722.16;;;13.14;56.35
48796;BME280;34607;48.520;-1.330;2023-03-02T13:30:27;100725.63;;;13.11;56.67
48796;BME280;34607;48.520;-1.330;2023-03-02T13:32:58;100723.09;;;13.19;56.35
48796;BME280;34607;48.520;-1.330;2023-03-02T13:35:29;100712.88;;;13.33;56.76
48796;BME280;34607;48.520;-1.330;2023-03-02T13:38:00;100710.13;;;13.22;56.27
48796;BME280;34607;48.520;-1.330;2023-03-02T13:40:36;100707.78;;;12.73;57.02
48796;BME280;34607;48.520;-1.330;2023-03-02T13:43:22;100713.00;;;12.71;56.29
48796;BME280;34607;48.520;-1.330;2023-03-02T13:45:51;100703.81;;;12.34;57.76
48796;BME280;34607;48.520;-1.330;2023-03-02T13:48:18;100702.25;;;12.48;58.66
48796;BME280;34607;48.520;-1.330;2023-03-02T13:50:52;100695.47;;;12.57;57.86
48796;BME280;34607;48.520;-1.330;2023-03-02T13:53:19;100669.94;;;12.28;58.59
48796;BME280;34607;48.520;-1.330;2023-03-02T13:55:47;100697.66;;;12.29;58.92
48796;BME280;34607;48.520;-1.330;2023-03-02T13:58:17;100702.22;;;12.45;58.74
48796;BME280;34607;48.520;-1.330;2023-03-02T14:00:45;100696.94;;;12.38;59.05
48796;BME280;34607;48.520;-1.330;2023-03-02T14:03:22;100695.41;;;12.53;58.83
48796;BME280;34607;48.520;-1.330;2023-03-02T14:05:50;100698.91;;;12.57;58.93
48796;BME280;34607;48.520;-1.330;2023-03-02T14:08:17;100697.88;;;12.44;59.05
48796;BME280;34607;48.520;-1.330;2023-03-02T14:10:44;100691.47;;;12.21;58.90
48796;BME280;34607;48.520;-1.330;2023-03-02T14:13:14;100702.81;;;12.26;59.23
48796;BME280;34607;48.520;-1.330;2023-03-02T14:15:46;100676.44;;;11.98;59.48
48796;BME280;34607;48.520;-1.330;2023-03-02T14:18:27;100694.41;;;12.45;60.24
48796;BME280;34607;48.520;-1.330;2023-03-02T14:20:55;100679.97;;;12.66;59.57
48796;BME280;34607;48.520;-1.330;2023-03-02T14:23:23;100698.13;;;12.61;60.14
48796;BME280;34607;48.520;-1.330;2023-03-02T14:25:50;100684.91;;;12.47;59.88
48796;BME280;34607;48.520;-1.330;2023-03-02T14:28:23;100690.59;;;12.18;60.44
48796;BME280;34607;48.520;-1.330;2023-03-02T14:30:54;100683.75;;;12.27;60.46
48796;BME280;34607;48.520;-1.330;2023-03-02T14:33:23;100673.53;;;12.36;60.82
48796;BME280;34607;48.520;-1.330;2023-03-02T14:35:53;100684.19;;;12.58;61.06
48796;BME280;34607;48.520;-1.330;2023-03-02T14:38:22;100677.88;;;12.39;61.31
48796;BME280;34607;48.520;-1.330;2023-03-02T14:40:50;100675.94;;;12.22;61.56
48796;BME280;34607;48.520;-1.330;2023-03-02T14:43:17;100681.69;;;12.04;62.15
48796;BME280;34607;48.520;-1.330;2023-03-02T14:45:45;100675.72;;;11.58;62.84
48796;BME280;34607;48.520;-1.330;2023-03-02T14:48:14;100677.00;;;11.34;63.33
48796;BME280;34607;48.520;-1.330;2023-03-02T14:50:43;100677.88;;;11.33;63.52
48796;BME280;34607;48.520;-1.330;2023-03-02T14:53:15;100676.72;;;11.19;63.15
48796;BME280;34607;48.520;-1.330;2023-03-02T14:55:43;100682.69;;;11.13;63.17
48796;BME280;34607;48.520;-1.330;2023-03-02T14:58:12;100664.41;;;11.05;63.29
48796;BME280;34607;48.520;-1.330;2023-03-02T15:00:40;100672.16;;;11.04;63.52
48796;BME280;34607;48.520;-1.330;2023-03-02T15:03:11;100678.13;;;11.01;63.10
48796;BME280;34607;48.520;-1.330;2023-03-02T15:05:41;100669.31;;;10.93;63.08
48796;BME280;34607;48.520;-1.330;2023-03-02T15:08:11;100662.97;;;10.77;63.35
48796;BME280;34607;48.520;-1.330;2023-03-02T15:10:39;100663.16;;;10.86;63.53
48796;BME280;34607;48.520;-1.330;2023-03-02T15:13:08;100657.28;;;10.95;63.12
48796;BME280;34607;48.520;-1.330;2023-03-02T15:15:35;100645.69;;;11.22;63.31
48796;BME280;34607;48.520;-1.330;2023-03-02T15:18:03;100651.22;;;11.40;63.43
48796;BME280;34607;48.520;-1.330;2023-03-02T15:20:30;100645.25;;;11.46;62.83
48796;BME280;34607;48.520;-1.330;2023-03-02T15:22:58;100648.47;;;11.31;62.89
48796;BME280;34607;48.520;-1.330;2023-03-02T15:25:27;100647.31;;;11.17;63.54
48796;BME280;34607;48.520;-1.330;2023-03-02T15:27:55;100652.03;;;10.92;64.08
48796;BME280;34607;48.520;-1.330;2023-03-02T15:30:23;100646.00;;;10.93;64.19
48796;BME280;34607;48.520;-1.330;2023-03-02T15:32:55;100648.50;;;10.87;64.23
48796;BME280;34607;48.520;-1.330;2023-03-02T15:35:25;100655.84;;;10.67;64.11
48796;BME280;34607;48.520;-1.330;2023-03-02T15:37:52;100663.22;;;10.47;64.47
48796;BME280;34607;48.520;-1.330;2023-03-02T15:40:21;100650.91;;;10.37;65.21
48796;BME280;34607;48.520;-1.330;2023-03-02T15:42:48;100656.31;;;10.47;64.92
48796;BME280;34607;48.520;-1.330;2023-03-02T15:45:15;100657.03;;;10.40;65.16
48796;BME280;34607;48.520;-1.330;2023-03-02T15:47:42;100659.28;;;10.66;65.08
48796;BME280;34607;48.520;-1.330;2023-03-02T15:50:10;100657.56;;;10.66;63.73
48796;BME280;34607;48.520;-1.330;2023-03-02T15:52:37;100658.31;;;10.61;63.79
48796;BME280;34607;48.520;-1.330;2023-03-02T15:55:06;100645.09;;;10.48;63.80
48796;BME280;34607;48.520;-1.330;2023-03-02T15:57:37;100659.16;;;10.60;63.16
48796;BME280;34607;48.520;-1.330;2023-03-02T16:00:06;100670.03;;;10.45;63.29
48796;BME280;34607;48.520;-1.330;2023-03-02T16:02:34;100674.22;;;10.37;63.56
48796;BME280;34607;48.520;-1.330;2023-03-02T16:05:01;100670.56;;;10.30;63.81
48796;BME280;34607;48.520;-1.330;2023-03-02T16:07:29;100668.78;;;10.27;64.21
48796;BME280;34607;48.520;-1.330;2023-03-02T16:09:56;100672.63;;;10.07;64.57
48796;BME280;34607;48.520;-1.330;2023-03-02T16:12:24;100679.47;;;10.05;64.31
48796;BME280;34607;48.520;-1.330;2023-03-02T16:14:52;100682.09;;;9.70;64.12
48796;BME280;34607;48.520;-1.330;2023-03-02T16:17:19;100684.75;;;9.74;64.22
48796;BME280;34607;48.520;-1.330;2023-03-02T16:19:47;100687.44;;;9.78;64.34
48796;BME280;34607;48.520;-1.330;2023-03-02T16:22:14;100684.69;;;9.71;64.37
48796;BME280;34607;48.520;-1.330;2023-03-02T16:24:41;100680.31;;;9.69;64.32
48796;BME280;34607;48.520;-1.330;2023-03-02T16:27:08;100682.88;;;9.67;64.05
48796;BME280;34607;48.520;-1.330;2023-03-02T16:29:35;100687.00;;;9.61;64.45
48796;BME280;34607;48.520;-1.330;2023-03-02T16:32:04;100692.38;;;9.35;64.19
48796;BME280;34607;48.520;-1.330;2023-03-02T16:34:33;100697.72;;;9.41;64.65
48796;BME280;34607;48.520;-1.330;2023-03-02T16:37:00;100702.03;;;9.42;64.45
48796;BME280;34607;48.520;-1.330;2023-03-02T16:39:27;100700.78;;;9.28;64.90
48796;BME280;34607;48.520;-1.330;2023-03-02T16:41:54;100711.81;;;9.21;65.24
48796;BME280;34607;48.520;-1.330;2023-03-02T16:44:21;100717.16;;;8.96;65.76
48796;BME280;34607;48.520;-1.330;2023-03-02T16:46:50;100702.22;;;8.86;66.50
48796;BME280;34607;48.520;-1.330;2023-03-02T16:49:19;100714.06;;;8.79;67.10
48796;BME280;34607;48.520;-1.330;2023-03-02T16:51:46;100719.06;;;8.73;67.62
48796;BME280;34607;48.520;-1.330;2023-03-02T16:54:15;100700.41;;;8.55;68.34
48796;BME280;34607;48.520;-1.330;2023-03-02T16:56:42;100723.84;;;8.61;68.56
48796;BME280;34607;48.520;-1.330;2023-03-02T16:59:12;100717.41;;;8.48;68.67
48796;BME280;34607;48.520;-1.330;2023-03-02T17:01:39;100723.47;;;8.49;69.19
48796;BME280;34607;48.520;-1.330;2023-03-02T17:04:06;100723.47;;;8.49;69.60
48796;BME280;34607;48.520;-1.330;2023-03-02T17:06:34;100722.28;;;8.39;69.86
48796;BME280;34607;48.520;-1.330;2023-03-02T17:09:02;100726.09;;;8.23;70.71
48796;BME280;34607;48.520;-1.330;2023-03-02T17:11:29;100714.31;;;8.04;71.12
48796;BME280;34607;48.520;-1.330;2023-03-02T17:13:56;100731.78;;;8.13;71.21
48796;BME280;34607;48.520;-1.330;2023-03-02T17:16:23;100729.69;;;8.01;71.71
48796;BME280;34607;48.520;-1.330;2023-03-02T17:18:51;100742.50;;;7.99;72.00
48796;BME280;34607;48.520;-1.330;2023-03-02T17:21:18;100738.22;;;8.00;71.98
48796;BME280;34607;48.520;-1.330;2023-03-02T17:23:46;100749.47;;;8.02;71.86
48796;BME280;34607;48.520;-1.330;2023-03-02T17:26:13;100752.53;;;7.90;72.04
48796;BME280;34607;48.520;-1.330;2023-03-02T17:28:40;100747.97;;;7.83;72.30
48796;BME280;34607;48.520;-1.330;2023-03-02T17:31:07;100754.31;;;7.67;73.10
48796;BME280;34607;48.520;-1.330;2023-03-02T17:33:36;100754.81;;;7.57;73.24
48796;BME280;34607;48.520;-1.330;2023-03-02T17:36:05;100757.94;;;7.48;73.58
48796;BME280;34607;48.520;-1.330;2023-03-02T17:38:34;100768.00;;;7.40;73.80
48796;BME280;34607;48.520;-1.330;2023-03-02T17:41:04;100772.91;;;7.34;74.08
48796;BME280;34607;48.520;-1.330;2023-03-02T17:43:31;100760.72;;;7.28;73.95
48796;BME280;34607;48.520;-1.330;2023-03-02T17:46:10;100734.94;;;7.04;74.51
48796;BME280;34607;48.520;-1.330;2023-03-02T17:48:38;100780.91;;;7.18;74.91
48796;BME280;34607;48.520;-1.330;2023-03-02T17:51:05;100782.47;;;7.14;75.48
48796;BME280;34607;48.520;-1.330;2023-03-02T17:53:32;100794.31;;;7.09;75.30
48796;BME280;34607;48.520;-1.330;2023-03-02T17:55:59;100793.59;;;6.90;76.22
48796;BME280;34607;48.520;-1.330;2023-03-02T17:58:27;100795.25;;;6.88;76.13
48796;BME280;34607;48.520;-1.330;2023-03-02T18:00:55;100801.78;;;6.80;77.10
48796;BME280;34607;48.520;-1.330;2023-03-02T18:03:22;100812.75;;;6.74;76.94
48796;BME280;34607;48.520;-1.330;2023-03-02T18:05:49;100808.97;;;6.66;77.08
48796;BME280;34607;48.520;-1.330;2023-03-02T18:08:16;100818.66;;;6.51;77.45
48796;BME280;34607;48.520;-1.330;2023-03-02T18:10:43;100812.84;;;6.34;78.50
48796;BME280;34607;48.520;-1.330;2023-03-02T18:13:10;100828.03;;;6.28;78.88
48796;BME280;34607;48.520;-1.330;2023-03-02T18:15:38;100830.16;;;6.17;79.72
48796;BME280;34607;48.520;-1.330;2023-03-02T18:18:05;100830.53;;;6.26;79.54
48796;BME280;34607;48.520;-1.330;2023-03-02T18:20:33;100827.47;;;6.35;78.93
48796;BME280;34607;48.520;-1.330;2023-03-02T18:23:00;100831.97;;;6.41;78.83
48796;BME280;34607;48.520;-1.330;2023-03-02T18:25:27;100834.66;;;6.44;78.68
48796;BME280;34607;48.520;-1.330;2023-03-02T18:27:54;100840.00;;;6.48;78.91
48796;BME280;34607;48.520;-1.330;2023-03-02T18:30:22;100845.28;;;6.51;78.84
48796;BME280;34607;48.520;-1.330;2023-03-02T18:32:50;100826.38;;;6.51;78.71
48796;BME280;34607;48.520;-1.330;2023-03-02T18:35:18;100837.56;;;6.51;78.68
48796;BME280;34607;48.520;-1.330;2023-03-02T18:37:45;100839.75;;;6.42;79.36
48796;BME280;34607;48.520;-1.330;2023-03-02T18:40:13;100825.25;;;6.23;79.47
48796;BME280;34607;48.520;-1.330;2023-03-02T18:42:40;100842.03;;;6.34;80.12
48796;BME280;34607;48.520;-1.330;2023-03-02T18:45:08;100836.09;;;6.37;79.75
48796;BME280;34607;48.520;-1.330;2023-03-02T18:47:36;100835.31;;;6.38;79.50
48796;BME280;34607;48.520;-1.330;2023-03-02T18:50:05;100825.81;;;6.37;79.46
48796;BME280;34607;48.520;-1.330;2023-03-02T18:52:32;100829.59;;;6.24;80.30
48796;BME280;34607;48.520;-1.330;2023-03-02T18:54:59;100834.88;;;6.27;79.97
48796;BME280;34607;48.520;-1.330;2023-03-02T18:57:26;100832.25;;;6.26;80.26
48796;BME280;34607;48.520;-1.330;2023-03-02T18:59:53;100832.25;;;6.26;79.91
48796;BME280;34607;48.520;-1.330;2023-03-02T19:02:20;100833.34;;;6.11;80.88
48796;BME280;34607;48.520;-1.330;2023-03-02T19:04:47;100827.88;;;6.04;80.90
48796;BME280;34607;48.520;-1.330;2023-03-02T19:07:16;100838.56;;;5.93;81.87
48796;BME280;34607;48.520;-1.330;2023-03-02T19:09:43;100838.56;;;5.93;81.75
48796;BME280;34607;48.520;-1.330;2023-03-02T19:12:10;100837.66;;;5.93;81.62
48796;BME280;34607;48.520;-1.330;2023-03-02T19:14:37;100844.28;;;5.88;82.04
48796;BME280;34607;48.520;-1.330;2023-03-02T19:17:07;100833.28;;;5.90;82.22
48796;BME280;34607;48.520;-1.330;2023-03-02T19:19:34;100842.00;;;5.94;81.92
48796;BME280;34607;48.520;-1.330;2023-03-02T19:22:01;100837.66;;;5.93;81.93
48796;BME280;34607;48.520;-1.330;2023-03-02T19:24:32;100835.78;;;5.89;82.30
48796;BME280;34607;48.520;-1.330;2023-03-02T19:26:59;100837.28;;;5.84;82.45
48796;BME280;34607;48.520;-1.330;2023-03-02T19:29:27;100840.63;;;5.82;82.54
48796;BME280;34607;48.520;-1.330;2023-03-02T19:31:54;100839.13;;;5.86;82.26
48796;BME280;34607;48.520;-1.330;2023-03-02T19:34:21;100795.19;;;5.60;82.96
48796;BME280;34607;48.520;-1.330;2023-03-02T19:36:48;100837.97;;;5.79;82.84
48796;BME280;34607;48.520;-1.330;2023-03-02T19:39:15;100844.03;;;5.81;82.79
48796;BME280;34607;48.520;-1.330;2023-03-02T19:41:44;100846.81;;;5.86;82.60
48796;BME280;34607;48.520;-1.330;2023-03-02T19:44:11;100844.28;;;5.88;82.84
48796;BME280;34607;48.520;-1.330;2023-03-02T19:46:38;100847.81;;;5.90;82.70
48796;BME280;34607;48.520;-1.330;2023-03-02T19:49:05;100858.19;;;5.91;82.67
48796;BME280;34607;48.520;-1.330;2023-03-02T19:51:33;100853.25;;;5.96;82.36
48796;BME280;34607;48.520;-1.330;2023-03-02T19:54:00;100846.34;;;5.95;82.33
48796;BME280;34607;48.520;-1.330;2023-03-02T19:56:28;100846.19;;;5.92;82.25
48796;BME280;34607;48.520;-1.330;2023-03-02T19:59:00;100852.28;;;5.94;82.48
48796;BME280;34607;48.520;-1.330;2023-03-02T20:01:27;100852.28;;;5.94;82.29
48796;BME280;34607;48.520;-1.330;2023-03-02T20:03:56;100857.47;;;5.95;82.36
48796;BME280;34607;48.520;-1.330;2023-03-02T20:06:26;100858.66;;;6.02;82.08
48796;BME280;34607;48.520;-1.330;2023-03-02T20:08:55;100851.88;;;6.04;82.04
48796;BME280;34607;48.520;-1.330;2023-03-02T20:11:22;100855.16;;;6.00;82.22
48796;BME280;34607;48.520;-1.330;2023-03-02T20:13:50;100816.44;;;5.77;81.96
48796;BME280;34607;48.520;-1.330;2023-03-02T20:16:19;100856.63;;;5.95;82.08
48796;BME280;34607;48.520;-1.330;2023-03-02T20:18:47;100855.66;;;5.93;82.40
48796;BME280;34607;48.520;-1.330;2023-03-02T20:21:14;100860.47;;;5.85;82.53
48796;BME280;34607;48.520;-1.330;2023-03-02T20:23:41;100858.09;;;5.70;83.03
48796;BME280;34607;48.520;-1.330;2023-03-02T20:26:08;100867.38;;;5.67;83.61
